Nearby METAR Reports

 

KFNL - Ft Collins/Lovel, Colorado, USA
Distance from station: E 23mi, 37km
Updated: Mon, 17-May-2021 4:13pm MDT
Heavy thunderstorm, Rain, Overcast
Heavy thunderstorm, Rain, Overcast
 Wind from SSW
Wind: SSW 12 mph , 19 km/h
Temperature: 57°F , 14°C
Dew Point: 52°F , 11°C
Humidity: 82%
Barometer: 29.96 inHg , 1014.6 hPa
Summary: Heavy thunderstorm, Rain
Clouds: Overcast
Visibility: 9 miles , 14 km
Cloud details: Mostly cloudy 3700 ft
Mostly cloudy 4900 ft
Overcast 6500 ft
2021/05/17 22:13 KFNL 172213Z 21010KT 9SM +TSRA BKN037 BKN049 OVC065 14/11 A2996 RMK AO2 LTG DSNT SW-NW TSE10B13RAB02 P0000
KLMO - Longmont/Vbrand, Colorado, USA
Distance from station: SE 26mi, 41km
Updated: Mon, 17-May-2021 3:55pm MDT
Light rain, Overcast
Light rain, Overcast
 Wind from calm
Wind: Calm
Temperature: 61°F , 16°C
Dew Point: 52°F , 11°C
Humidity: 72%
Barometer: 29.98 inHg , 1015.2 hPa
Summary: Light rain
Clouds: Overcast
Visibility: 7 miles , 11 km
Cloud details: Partly cloudy 3600 ft
Mostly cloudy 7500 ft
Overcast 8500 ft
2021/05/17 21:55 KLMO 172155Z AUTO 00000KT 7SM -RA SCT036 BKN075 OVC085 16/11 A2998 RMK AO2 T01600108
 
KBDU - Boulder Muni, Colorado, USA
Distance from station: SSE 32mi, 52km
Updated: Mon, 17-May-2021 3:55pm MDT
Light thunderstorm, Rain, Overcast
Light thunderstorm, Rain, Overcast
 Wind from calm
Wind: Calm
Temperature: 55°F , 13°C
Dew Point: 50°F , 10°C
Humidity: 82%
Barometer: 29.96 inHg , 1014.6 hPa
Summary: Light thunderstorm, Rain
Clouds: Overcast
Visibility: 3 miles , 5 km
Cloud details: Partly cloudy 3200 ft
Mostly cloudy 5000 ft
Overcast 6000 ft
2021/05/17 21:55 KBDU 172155Z AUTO 00000KT 3SM -TSRA SCT032 BKN050 OVC060 13/10 A2996 RMK AO2 P0006 LTG DSNT ALQS
KEIK - Erie Muni, Colorado, USA
Distance from station: SE 38mi, 61km
Updated: Mon, 17-May-2021 3:55pm MDT
Nearby thunderstorm, Overcast
Nearby thunderstorm, Overcast
 Wind from W
Wind: W 6 mph , 9 km/h
Temperature: 59°F , 15°C
Dew Point: 48°F , 9°C
Humidity: 68%
Barometer: 29.96 inHg , 1014.6 hPa
Summary: Nearby Thunderstorm
Clouds: Overcast
Visibility: 10 miles , 16 km
Cloud details: Overcast 7000 ft
2021/05/17 21:55 KEIK 172155Z AUTO 26005KT 10SM VCTS OVC070 15/09 A2996 RMK AO2 LTG DSNT ALQS T01450091
 
KBJC - Broomfield/Jeffc, Colorado, USA
Distance from station: SSE 44mi, 70km
Updated: Mon, 17-May-2021 3:47pm MDT
Light rain, Mostly cloudy
Light rain, Mostly cloudy
 Wind from N
Wind: N 7 mph , 11 km/h
Temperature: 57°F , 14°C
Dew Point: 50°F , 10°C
Humidity: 77%
Barometer: 29.97 inHg , 1014.9 hPa
Summary: Light rain
Clouds: Mostly cloudy
Visibility: 10 miles , 16 km
Cloud details: Mostly cloudy 8000 ft
2021/05/17 21:47 KBJC 172147Z 35006KT 10SM -RA BKN080 14/10 A2997
KGXY - Greeley/Weld, Colorado, USA
Distance from station: E 44mi, 71km
Updated: Mon, 17-May-2021 3:56pm MDT
Overcast
Overcast
 Wind from E
Wind: E 15 mph , 24 km/h
Temperature: 64°F , 18°C
Dew Point: 48°F , 9°C
Humidity: 56%
Barometer: 29.96 inHg , 1014.6 hPa
Clouds: Overcast
Visibility: 10 miles , 16 km
Cloud details: Partly cloudy 200 ft
Overcast 7000 ft
2021/05/17 21:56 KGXY 172156Z AUTO 10013KT 10SM SCT002 OVC070 18/09 A2996 RMK AO2 LTG DSNT W RAB30E41 SLP124 P0000 T01780089
 
K33V - Walden, Colorado, USA
Distance from station: WNW 48mi, 77km
Updated: Mon, 17-May-2021 3:55pm MDT
Overcast
Overcast
 Wind from S
Wind: S 7 mph , 11 km/h
Temperature: 50°F , 10°C
Wind Chill: 47°F , 8°C
Dew Point: 34°F , 1°C
Humidity: 54%
Barometer: 30.09 inHg , 1019 hPa
Clouds: Overcast
Visibility: 10 miles , 16 km
Cloud details: Partly cloudy 3800 ft
Partly cloudy 4300 ft
Overcast 5000 ft
2021/05/17 21:55 K33V 172155Z AUTO 17006KT 10SM SCT038 SCT043 OVC050 10/01 A3009 RMK AO2 T00970013
K0CO - Berthoud Pass, Colorado, USA
Distance from station: SSW 49mi, 79km
Updated: Mon, 17-May-2021 3:55pm MDT
Overcast
Overcast
 Wind from calm
Wind: Calm
Temperature: 32°F , 0°C
Dew Point: 21°F , -6°C
Humidity: 64%
Barometer: 30.25 inHg , 1024.4 hPa
Clouds: Overcast
Visibility: 10 miles , 16 km
Cloud details: Partly cloudy 4300 ft
Partly cloudy 5000 ft
Overcast 9000 ft
2021/05/17 21:55 K0CO 172155Z AUTO 00000KT 10SM SCT043 SCT050 OVC090 00/M06 A3025 RMK AO2